sensor_id;sensor_type;location;lat;lon;timestamp;P1;durP1;ratioP1;P2;durP2;ratioP2
9749;SDS011;4914;43.218;27.908;2022-08-03T00:01:23;16.70;;;13.38;;
9749;SDS011;4914;43.218;27.908;2022-08-03T00:03:49;13.85;;;12.52;;
9749;SDS011;4914;43.218;27.908;2022-08-03T00:06:16;13.00;;;11.63;;
9749;SDS011;4914;43.218;27.908;2022-08-03T00:08:43;16.15;;;12.15;;
9749;SDS011;4914;43.218;27.908;2022-08-03T00:11:10;13.27;;;11.90;;
9749;SDS011;4914;43.218;27.908;2022-08-03T00:13:37;11.90;;;10.70;;
9749;SDS011;4914;43.218;27.908;2022-08-03T00:16:05;15.60;;;11.13;;
9749;SDS011;4914;43.218;27.908;2022-08-03T00:18:32;12.98;;;10.57;;
9749;SDS011;4914;43.218;27.908;2022-08-03T00:20:59;15.93;;;11.05;;
9749;SDS011;4914;43.218;27.908;2022-08-03T00:23:26;12.35;;;11.00;;
9749;SDS011;4914;43.218;27.908;2022-08-03T00:25:53;12.52;;;10.48;;
9749;SDS011;4914;43.218;27.908;2022-08-03T00:28:20;12.40;;;9.95;;
9749;SDS011;4914;43.218;27.908;2022-08-03T00:30:46;9.27;;;8.38;;
9749;SDS011;4914;43.218;27.908;2022-08-03T00:33:15;12.55;;;7.60;;
9749;SDS011;4914;43.218;27.908;2022-08-03T00:35:42;11.40;;;8.43;;
9749;SDS011;4914;43.218;27.908;2022-08-03T00:38:09;10.27;;;6.78;;
9749;SDS011;4914;43.218;27.908;2022-08-03T00:40:36;6.97;;;5.50;;
9749;SDS011;4914;43.218;27.908;2022-08-03T00:43:04;5.68;;;5.18;;
9749;SDS011;4914;43.218;27.908;2022-08-03T00:45:32;7.18;;;4.90;;
9749;SDS011;4914;43.218;27.908;2022-08-03T00:48:01;5.40;;;5.00;;
9749;SDS011;4914;43.218;27.908;2022-08-03T00:50:31;6.47;;;4.40;;
9749;SDS011;4914;43.218;27.908;2022-08-03T00:53:08;6.30;;;4.35;;
9749;SDS011;4914;43.218;27.908;2022-08-03T00:55:36;4.80;;;4.40;;
9749;SDS011;4914;43.218;27.908;2022-08-03T00:58:03;6.00;;;4.50;;
9749;SDS011;4914;43.218;27.908;2022-08-03T01:00:31;4.80;;;4.30;;
9749;SDS011;4914;43.218;27.908;2022-08-03T01:03:02;4.93;;;4.45;;
9749;SDS011;4914;43.218;27.908;2022-08-03T01:05:31;7.15;;;4.40;;
9749;SDS011;4914;43.218;27.908;2022-08-03T01:08:05;4.97;;;4.47;;
9749;SDS011;4914;43.218;27.908;2022-08-03T01:10:38;5.38;;;4.43;;
9749;SDS011;4914;43.218;27.908;2022-08-03T01:13:16;4.30;;;4.00;;
9749;SDS011;4914;43.218;27.908;2022-08-03T01:15:52;6.18;;;4.15;;
9749;SDS011;4914;43.218;27.908;2022-08-03T01:18:26;6.07;;;4.40;;
9749;SDS011;4914;43.218;27.908;2022-08-03T01:21:02;6.15;;;4.47;;
9749;SDS011;4914;43.218;27.908;2022-08-03T01:23:50;6.03;;;4.35;;
9749;SDS011;4914;43.218;27.908;2022-08-03T01:29:45;4.80;;;4.40;;
9749;SDS011;4914;43.218;27.908;2022-08-03T01:32:24;5.30;;;4.90;;
9749;SDS011;4914;43.218;27.908;2022-08-03T01:34:54;7.65;;;5.50;;
9749;SDS011;4914;43.218;27.908;2022-08-03T01:37:27;5.70;;;5.28;;
9749;SDS011;4914;43.218;27.908;2022-08-03T01:40:00;5.68;;;5.18;;
9749;SDS011;4914;43.218;27.908;2022-08-03T01:42:29;6.13;;;5.53;;
9749;SDS011;4914;43.218;27.908;2022-08-03T01:44:59;7.53;;;5.10;;
9749;SDS011;4914;43.218;27.908;2022-08-03T01:47:27;6.32;;;5.70;;
9749;SDS011;4914;43.218;27.908;2022-08-03T01:49:55;6.10;;;5.50;;
9749;SDS011;4914;43.218;27.908;2022-08-03T01:52:24;6.97;;;6.10;;
9749;SDS011;4914;43.218;27.908;2022-08-03T01:54:51;6.78;;;5.60;;
9749;SDS011;4914;43.218;27.908;2022-08-03T01:57:20;5.97;;;5.45;;
9749;SDS011;4914;43.218;27.908;2022-08-03T01:59:50;6.32;;;5.80;;
9749;SDS011;4914;43.218;27.908;2022-08-03T02:02:20;6.20;;;5.68;;
9749;SDS011;4914;43.218;27.908;2022-08-03T02:04:49;12.68;;;6.10;;
9749;SDS011;4914;43.218;27.908;2022-08-03T02:07:18;7.57;;;6.60;;
9749;SDS011;4914;43.218;27.908;2022-08-03T02:09:45;10.45;;;6.40;;
9749;SDS011;4914;43.218;27.908;2022-08-03T02:12:16;6.85;;;6.15;;
9749;SDS011;4914;43.218;27.908;2022-08-03T02:14:45;7.47;;;6.47;;
9749;SDS011;4914;43.218;27.908;2022-08-03T02:17:15;11.48;;;6.55;;
9749;SDS011;4914;43.218;27.908;2022-08-03T02:19:43;9.70;;;6.95;;
9749;SDS011;4914;43.218;27.908;2022-08-03T02:22:11;9.57;;;6.72;;
9749;SDS011;4914;43.218;27.908;2022-08-03T02:24:39;10.35;;;6.10;;
9749;SDS011;4914;43.218;27.908;2022-08-03T02:27:08;7.22;;;5.82;;
9749;SDS011;4914;43.218;27.908;2022-08-03T02:29:41;6.50;;;5.90;;
9749;SDS011;4914;43.218;27.908;2022-08-03T02:32:15;8.93;;;5.80;;
9749;SDS011;4914;43.218;27.908;2022-08-03T02:34:48;6.47;;;5.88;;
9749;SDS011;4914;43.218;27.908;2022-08-03T02:37:18;9.68;;;6.03;;
9749;SDS011;4914;43.218;27.908;2022-08-03T02:39:49;8.13;;;5.75;;
9749;SDS011;4914;43.218;27.908;2022-08-03T02:42:19;7.22;;;5.75;;
9749;SDS011;4914;43.218;27.908;2022-08-03T02:44:48;7.68;;;5.90;;
9749;SDS011;4914;43.218;27.908;2022-08-03T02:47:18;8.52;;;5.75;;
9749;SDS011;4914;43.218;27.908;2022-08-03T02:49:48;6.57;;;5.57;;
9749;SDS011;4914;43.218;27.908;2022-08-03T02:52:18;11.65;;;5.70;;
9749;SDS011;4914;43.218;27.908;2022-08-03T02:54:47;7.43;;;5.10;;
9749;SDS011;4914;43.218;27.908;2022-08-03T02:57:17;8.18;;;4.85;;
9749;SDS011;4914;43.218;27.908;2022-08-03T02:59:46;6.28;;;5.32;;
9749;SDS011;4914;43.218;27.908;2022-08-03T03:02:14;11.98;;;5.60;;
9749;SDS011;4914;43.218;27.908;2022-08-03T03:04:42;6.80;;;5.05;;
9749;SDS011;4914;43.218;27.908;2022-08-03T03:07:11;7.55;;;5.00;;
9749;SDS011;4914;43.218;27.908;2022-08-03T03:09:39;9.60;;;4.90;;
9749;SDS011;4914;43.218;27.908;2022-08-03T03:12:07;6.22;;;5.47;;
9749;SDS011;4914;43.218;27.908;2022-08-03T03:14:36;10.93;;;5.00;;
9749;SDS011;4914;43.218;27.908;2022-08-03T03:17:03;5.85;;;5.20;;
9749;SDS011;4914;43.218;27.908;2022-08-03T03:19:32;5.65;;;5.15;;
9749;SDS011;4914;43.218;27.908;2022-08-03T03:22:00;11.43;;;5.50;;
9749;SDS011;4914;43.218;27.908;2022-08-03T03:24:30;7.85;;;5.30;;
9749;SDS011;4914;43.218;27.908;2022-08-03T03:26:57;8.40;;;5.45;;
9749;SDS011;4914;43.218;27.908;2022-08-03T03:29:25;8.10;;;5.05;;
9749;SDS011;4914;43.218;27.908;2022-08-03T03:31:53;5.40;;;4.90;;
9749;SDS011;4914;43.218;27.908;2022-08-03T03:34:21;7.65;;;5.20;;
9749;SDS011;4914;43.218;27.908;2022-08-03T03:36:49;7.20;;;5.38;;
9749;SDS011;4914;43.218;27.908;2022-08-03T03:39:16;6.97;;;5.15;;
9749;SDS011;4914;43.218;27.908;2022-08-03T03:41:44;5.53;;;4.78;;
9749;SDS011;4914;43.218;27.908;2022-08-03T03:44:11;8.48;;;5.10;;
9749;SDS011;4914;43.218;27.908;2022-08-03T03:46:38;7.95;;;5.38;;
9749;SDS011;4914;43.218;27.908;2022-08-03T03:49:05;7.40;;;4.43;;
9749;SDS011;4914;43.218;27.908;2022-08-03T03:51:32;11.68;;;5.22;;
9749;SDS011;4914;43.218;27.908;2022-08-03T03:54:00;8.93;;;4.90;;
9749;SDS011;4914;43.218;27.908;2022-08-03T03:56:29;5.13;;;4.38;;
9749;SDS011;4914;43.218;27.908;2022-08-03T03:58:58;5.30;;;4.80;;
9749;SDS011;4914;43.218;27.908;2022-08-03T04:01:24;7.25;;;4.57;;
9749;SDS011;4914;43.218;27.908;2022-08-03T04:03:51;5.82;;;4.78;;
9749;SDS011;4914;43.218;27.908;2022-08-03T04:06:18;6.32;;;5.03;;
9749;SDS011;4914;43.218;27.908;2022-08-03T04:09:02;7.07;;;5.05;;
9749;SDS011;4914;43.218;27.908;2022-08-03T04:11:48;6.03;;;5.03;;
9749;SDS011;4914;43.218;27.908;2022-08-03T04:14:19;9.27;;;5.15;;
9749;SDS011;4914;43.218;27.908;2022-08-03T04:16:49;9.48;;;5.15;;
9749;SDS011;4914;43.218;27.908;2022-08-03T04:19:20;9.90;;;4.47;;
9749;SDS011;4914;43.218;27.908;2022-08-03T04:21:54;9.85;;;5.10;;
9749;SDS011;4914;43.218;27.908;2022-08-03T04:24:24;8.50;;;4.85;;
9749;SDS011;4914;43.218;27.908;2022-08-03T04:26:56;7.53;;;5.20;;
9749;SDS011;4914;43.218;27.908;2022-08-03T04:29:26;9.05;;;5.15;;
9749;SDS011;4914;43.218;27.908;2022-08-03T04:31:56;9.20;;;4.60;;
9749;SDS011;4914;43.218;27.908;2022-08-03T04:34:26;8.25;;;4.35;;
9749;SDS011;4914;43.218;27.908;2022-08-03T04:36:55;6.43;;;5.10;;
9749;SDS011;4914;43.218;27.908;2022-08-03T04:39:25;8.68;;;4.90;;
9749;SDS011;4914;43.218;27.908;2022-08-03T04:41:53;7.97;;;4.80;;
9749;SDS011;4914;43.218;27.908;2022-08-03T04:44:23;9.80;;;5.10;;
9749;SDS011;4914;43.218;27.908;2022-08-03T04:46:52;11.65;;;6.07;;
9749;SDS011;4914;43.218;27.908;2022-08-03T04:49:19;6.65;;;4.38;;
9749;SDS011;4914;43.218;27.908;2022-08-03T04:51:47;6.35;;;4.70;;
9749;SDS011;4914;43.218;27.908;2022-08-03T04:54:15;5.60;;;4.57;;
9749;SDS011;4914;43.218;27.908;2022-08-03T04:56:42;10.18;;;5.20;;
9749;SDS011;4914;43.218;27.908;2022-08-03T04:59:09;8.18;;;4.90;;
9749;SDS011;4914;43.218;27.908;2022-08-03T05:01:37;7.15;;;4.68;;
9749;SDS011;4914;43.218;27.908;2022-08-03T05:04:06;5.78;;;5.10;;
9749;SDS011;4914;43.218;27.908;2022-08-03T05:06:33;6.38;;;4.97;;
9749;SDS011;4914;43.218;27.908;2022-08-03T05:09:00;6.95;;;4.18;;
9749;SDS011;4914;43.218;27.908;2022-08-03T05:11:27;4.43;;;3.72;;
9749;SDS011;4914;43.218;27.908;2022-08-03T05:13:54;3.95;;;3.38;;
9749;SDS011;4914;43.218;27.908;2022-08-03T05:16:21;10.27;;;4.05;;
9749;SDS011;4914;43.218;27.908;2022-08-03T05:18:49;4.85;;;3.80;;
9749;SDS011;4914;43.218;27.908;2022-08-03T05:21:18;7.57;;;4.10;;
9749;SDS011;4914;43.218;27.908;2022-08-03T05:23:44;4.97;;;3.38;;
9749;SDS011;4914;43.218;27.908;2022-08-03T05:26:11;6.88;;;3.70;;
9749;SDS011;4914;43.218;27.908;2022-08-03T05:28:38;5.82;;;4.20;;
9749;SDS011;4914;43.218;27.908;2022-08-03T05:31:05;5.63;;;3.65;;
9749;SDS011;4914;43.218;27.908;2022-08-03T05:33:32;6.25;;;3.80;;
9749;SDS011;4914;43.218;27.908;2022-08-03T05:35:59;5.72;;;3.20;;
9749;SDS011;4914;43.218;27.908;2022-08-03T05:38:27;10.90;;;3.63;;
9749;SDS011;4914;43.218;27.908;2022-08-03T05:40:54;8.00;;;3.08;;
9749;SDS011;4914;43.218;27.908;2022-08-03T05:43:21;9.32;;;3.30;;
9749;SDS011;4914;43.218;27.908;2022-08-03T05:45:48;9.23;;;3.38;;
9749;SDS011;4914;43.218;27.908;2022-08-03T05:48:15;6.10;;;3.65;;
9749;SDS011;4914;43.218;27.908;2022-08-03T05:50:42;5.15;;;3.63;;
9749;SDS011;4914;43.218;27.908;2022-08-03T05:53:09;5.60;;;3.10;;
9749;SDS011;4914;43.218;27.908;2022-08-03T05:55:37;5.97;;;3.13;;
9749;SDS011;4914;43.218;27.908;2022-08-03T05:58:04;5.30;;;3.90;;
9749;SDS011;4914;43.218;27.908;2022-08-03T06:00:31;8.75;;;3.30;;
9749;SDS011;4914;43.218;27.908;2022-08-03T06:02:58;11.50;;;3.10;;
9749;SDS011;4914;43.218;27.908;2022-08-03T06:05:25;7.00;;;2.90;;
9749;SDS011;4914;43.218;27.908;2022-08-03T06:07:52;7.63;;;3.15;;
9749;SDS011;4914;43.218;27.908;2022-08-03T06:10:19;8.88;;;3.22;;
9749;SDS011;4914;43.218;27.908;2022-08-03T06:12:48;5.57;;;3.17;;
9749;SDS011;4914;43.218;27.908;2022-08-03T06:15:15;3.67;;;2.85;;
9749;SDS011;4914;43.218;27.908;2022-08-03T06:17:45;8.48;;;3.25;;
9749;SDS011;4914;43.218;27.908;2022-08-03T06:20:14;14.52;;;3.28;;
9749;SDS011;4914;43.218;27.908;2022-08-03T06:22:43;6.32;;;3.25;;
9749;SDS011;4914;43.218;27.908;2022-08-03T06:25:10;9.13;;;2.88;;
9749;SDS011;4914;43.218;27.908;2022-08-03T06:27:37;10.57;;;3.20;;
9749;SDS011;4914;43.218;27.908;2022-08-03T06:30:07;7.43;;;3.50;;
9749;SDS011;4914;43.218;27.908;2022-08-03T06:32:35;5.68;;;3.08;;
9749;SDS011;4914;43.218;27.908;2022-08-03T06:35:03;5.60;;;3.20;;
9749;SDS011;4914;43.218;27.908;2022-08-03T06:37:30;4.85;;;2.83;;
9749;SDS011;4914;43.218;27.908;2022-08-03T06:39:57;5.35;;;2.70;;
9749;SDS011;4914;43.218;27.908;2022-08-03T06:42:24;5.78;;;3.00;;
9749;SDS011;4914;43.218;27.908;2022-08-03T06:44:51;4.55;;;3.00;;
9749;SDS011;4914;43.218;27.908;2022-08-03T06:47:19;5.93;;;2.97;;
9749;SDS011;4914;43.218;27.908;2022-08-03T06:49:46;10.05;;;3.00;;
9749;SDS011;4914;43.218;27.908;2022-08-03T06:52:12;8.20;;;3.08;;
9749;SDS011;4914;43.218;27.908;2022-08-03T06:54:39;12.57;;;3.10;;
9749;SDS011;4914;43.218;27.908;2022-08-03T06:57:06;4.20;;;2.70;;
9749;SDS011;4914;43.218;27.908;2022-08-03T06:59:35;5.93;;;2.85;;
9749;SDS011;4914;43.218;27.908;2022-08-03T07:02:02;4.38;;;3.00;;
9749;SDS011;4914;43.218;27.908;2022-08-03T07:04:30;7.20;;;2.90;;
9749;SDS011;4914;43.218;27.908;2022-08-03T07:06:57;7.78;;;2.78;;
9749;SDS011;4914;43.218;27.908;2022-08-03T07:09:24;6.93;;;2.60;;
9749;SDS011;4914;43.218;27.908;2022-08-03T07:11:52;13.32;;;3.38;;
9749;SDS011;4914;43.218;27.908;2022-08-03T07:14:19;8.63;;;2.80;;
9749;SDS011;4914;43.218;27.908;2022-08-03T07:16:46;12.10;;;3.70;;
9749;SDS011;4914;43.218;27.908;2022-08-03T07:19:13;9.75;;;2.65;;
9749;SDS011;4914;43.218;27.908;2022-08-03T07:21:41;5.10;;;2.50;;
9749;SDS011;4914;43.218;27.908;2022-08-03T07:24:08;7.75;;;2.60;;
9749;SDS011;4914;43.218;27.908;2022-08-03T07:26:34;7.95;;;2.63;;
9749;SDS011;4914;43.218;27.908;2022-08-03T07:29:01;11.95;;;3.20;;
9749;SDS011;4914;43.218;27.908;2022-08-03T07:31:28;4.25;;;2.50;;
9749;SDS011;4914;43.218;27.908;2022-08-03T07:33:55;10.13;;;2.58;;
9749;SDS011;4914;43.218;27.908;2022-08-03T07:36:22;11.05;;;3.00;;
9749;SDS011;4914;43.218;27.908;2022-08-03T07:38:52;5.68;;;2.80;;
9749;SDS011;4914;43.218;27.908;2022-08-03T07:41:19;6.15;;;2.60;;
9749;SDS011;4914;43.218;27.908;2022-08-03T07:43:45;8.40;;;2.40;;
9749;SDS011;4914;43.218;27.908;2022-08-03T07:46:12;3.97;;;2.30;;
9749;SDS011;4914;43.218;27.908;2022-08-03T07:48:39;9.98;;;2.33;;
9749;SDS011;4914;43.218;27.908;2022-08-03T07:51:06;10.93;;;2.70;;
9749;SDS011;4914;43.218;27.908;2022-08-03T07:53:33;9.52;;;2.83;;
9749;SDS011;4914;43.218;27.908;2022-08-03T07:56:02;8.02;;;2.70;;
9749;SDS011;4914;43.218;27.908;2022-08-03T07:58:28;7.20;;;2.60;;
9749;SDS011;4914;43.218;27.908;2022-08-03T08:00:55;19.45;;;3.10;;
9749;SDS011;4914;43.218;27.908;2022-08-03T08:03:22;9.10;;;2.45;;
9749;SDS011;4914;43.218;27.908;2022-08-03T08:05:50;9.10;;;2.55;;
9749;SDS011;4914;43.218;27.908;2022-08-03T08:08:18;7.53;;;2.78;;
9749;SDS011;4914;43.218;27.908;2022-08-03T08:10:45;7.97;;;3.00;;
9749;SDS011;4914;43.218;27.908;2022-08-03T08:13:14;8.40;;;2.67;;
9749;SDS011;4914;43.218;27.908;2022-08-03T08:15:41;4.70;;;2.60;;
9749;SDS011;4914;43.218;27.908;2022-08-03T08:18:07;6.72;;;2.65;;
9749;SDS011;4914;43.218;27.908;2022-08-03T08:20:34;8.00;;;3.20;;
9749;SDS011;4914;43.218;27.908;2022-08-03T08:23:03;9.95;;;2.72;;
9749;SDS011;4914;43.218;27.908;2022-08-03T08:25:32;6.40;;;2.80;;
9749;SDS011;4914;43.218;27.908;2022-08-03T08:28:00;5.53;;;2.90;;
9749;SDS011;4914;43.218;27.908;2022-08-03T08:30:30;5.05;;;2.63;;
9749;SDS011;4914;43.218;27.908;2022-08-03T08:32:58;11.00;;;2.72;;
9749;SDS011;4914;43.218;27.908;2022-08-03T08:35:25;10.75;;;3.22;;
9749;SDS011;4914;43.218;27.908;2022-08-03T08:37:51;7.30;;;2.70;;
9749;SDS011;4914;43.218;27.908;2022-08-03T08:40:19;3.58;;;2.40;;
9749;SDS011;4914;43.218;27.908;2022-08-03T08:42:47;5.15;;;2.70;;
9749;SDS011;4914;43.218;27.908;2022-08-03T08:45:14;5.43;;;2.60;;
9749;SDS011;4914;43.218;27.908;2022-08-03T08:47:44;7.57;;;2.70;;
9749;SDS011;4914;43.218;27.908;2022-08-03T08:50:12;8.15;;;2.40;;
9749;SDS011;4914;43.218;27.908;2022-08-03T08:52:42;7.72;;;2.50;;
9749;SDS011;4914;43.218;27.908;2022-08-03T08:55:12;4.35;;;2.50;;
9749;SDS011;4914;43.218;27.908;2022-08-03T08:57:43;10.00;;;2.53;;
9749;SDS011;4914;43.218;27.908;2022-08-03T09:00:13;9.35;;;2.55;;
9749;SDS011;4914;43.218;27.908;2022-08-03T09:02:42;2.55;;;2.33;;
9749;SDS011;4914;43.218;27.908;2022-08-03T09:05:11;4.57;;;2.25;;
9749;SDS011;4914;43.218;27.908;2022-08-03T09:07:38;9.77;;;2.50;;
9749;SDS011;4914;43.218;27.908;2022-08-03T09:10:05;3.85;;;2.33;;
9749;SDS011;4914;43.218;27.908;2022-08-03T09:12:35;8.35;;;2.30;;
9749;SDS011;4914;43.218;27.908;2022-08-03T09:15:14;7.90;;;2.30;;
9749;SDS011;4914;43.218;27.908;2022-08-03T09:17:46;7.93;;;3.70;;
9749;SDS011;4914;43.218;27.908;2022-08-03T09:20:14;19.88;;;2.60;;
9749;SDS011;4914;43.218;27.908;2022-08-03T09:22:51;5.30;;;2.00;;
9749;SDS011;4914;43.218;27.908;2022-08-03T09:25:25;2.65;;;1.80;;
9749;SDS011;4914;43.218;27.908;2022-08-03T09:28:03;6.45;;;1.98;;
9749;SDS011;4914;43.218;27.908;2022-08-03T09:30:34;6.65;;;1.90;;
9749;SDS011;4914;43.218;27.908;2022-08-03T09:33:03;3.65;;;1.90;;
9749;SDS011;4914;43.218;27.908;2022-08-03T09:35:31;7.25;;;2.00;;
9749;SDS011;4914;43.218;27.908;2022-08-03T09:38:08;4.10;;;1.83;;
9749;SDS011;4914;43.218;27.908;2022-08-03T09:40:36;8.63;;;1.70;;
9749;SDS011;4914;43.218;27.908;2022-08-03T09:43:03;3.15;;;1.50;;
9749;SDS011;4914;43.218;27.908;2022-08-03T09:45:32;7.22;;;2.30;;
9749;SDS011;4914;43.218;27.908;2022-08-03T09:48:13;2.85;;;1.70;;
9749;SDS011;4914;43.218;27.908;2022-08-03T09:50:47;3.03;;;1.70;;
9749;SDS011;4914;43.218;27.908;2022-08-03T09:53:15;2.13;;;1.90;;
9749;SDS011;4914;43.218;27.908;2022-08-03T09:55:49;4.13;;;2.00;;
9749;SDS011;4914;43.218;27.908;2022-08-03T09:58:16;9.15;;;1.88;;
9749;SDS011;4914;43.218;27.908;2022-08-03T10:00:56;4.28;;;1.95;;
9749;SDS011;4914;43.218;27.908;2022-08-03T10:03:26;2.97;;;1.83;;
9749;SDS011;4914;43.218;27.908;2022-08-03T10:05:54;3.88;;;1.63;;
9749;SDS011;4914;43.218;27.908;2022-08-03T10:08:21;5.50;;;1.90;;
9749;SDS011;4914;43.218;27.908;2022-08-03T10:10:49;4.63;;;1.70;;
9749;SDS011;4914;43.218;27.908;2022-08-03T10:13:19;4.35;;;1.77;;
9749;SDS011;4914;43.218;27.908;2022-08-03T10:15:47;4.13;;;1.92;;
9749;SDS011;4914;43.218;27.908;2022-08-03T10:18:13;5.25;;;2.17;;
9749;SDS011;4914;43.218;27.908;2022-08-03T10:20:44;3.22;;;2.42;;
9749;SDS011;4914;43.218;27.908;2022-08-03T10:23:15;2.75;;;2.22;;
9749;SDS011;4914;43.218;27.908;2022-08-03T10:25:45;3.38;;;2.20;;
9749;SDS011;4914;43.218;27.908;2022-08-03T10:28:13;2.53;;;2.33;;
9749;SDS011;4914;43.218;27.908;2022-08-03T10:30:43;3.03;;;2.15;;
9749;SDS011;4914;43.218;27.908;2022-08-03T10:33:16;6.72;;;2.58;;
9749;SDS011;4914;43.218;27.908;2022-08-03T10:35:46;7.13;;;2.40;;
9749;SDS011;4914;43.218;27.908;2022-08-03T10:38:18;2.63;;;2.33;;
9749;SDS011;4914;43.218;27.908;2022-08-03T10:40:47;7.53;;;2.53;;
9749;SDS011;4914;43.218;27.908;2022-08-03T10:43:19;3.53;;;2.30;;
9749;SDS011;4914;43.218;27.908;2022-08-03T10:45:50;3.20;;;2.50;;
9749;SDS011;4914;43.218;27.908;2022-08-03T10:48:17;3.60;;;2.60;;
9749;SDS011;4914;43.218;27.908;2022-08-03T10:50:47;2.75;;;2.33;;
9749;SDS011;4914;43.218;27.908;2022-08-03T10:53:15;2.55;;;2.35;;
9749;SDS011;4914;43.218;27.908;2022-08-03T10:55:59;4.57;;;2.72;;
9749;SDS011;4914;43.218;27.908;2022-08-03T10:58:48;8.82;;;2.60;;
9749;SDS011;4914;43.218;27.908;2022-08-03T11:01:16;3.70;;;2.20;;
9749;SDS011;4914;43.218;27.908;2022-08-03T11:06:42;5.78;;;2.30;;
9749;SDS011;4914;43.218;27.908;2022-08-03T11:09:14;6.72;;;2.50;;
9749;SDS011;4914;43.218;27.908;2022-08-03T11:11:43;5.07;;;2.45;;
9749;SDS011;4914;43.218;27.908;2022-08-03T11:14:11;3.67;;;2.30;;
9749;SDS011;4914;43.218;27.908;2022-08-03T11:16:39;4.45;;;2.28;;
9749;SDS011;4914;43.218;27.908;2022-08-03T11:19:09;5.38;;;2.33;;
9749;SDS011;4914;43.218;27.908;2022-08-03T11:21:56;7.63;;;2.50;;
9749;SDS011;4914;43.218;27.908;2022-08-03T11:27:26;3.10;;;2.10;;
9749;SDS011;4914;43.218;27.908;2022-08-03T11:29:55;3.58;;;2.40;;
9749;SDS011;4914;43.218;27.908;2022-08-03T11:35:24;3.28;;;2.25;;
9749;SDS011;4914;43.218;27.908;2022-08-03T11:38:06;3.15;;;2.30;;
9749;SDS011;4914;43.218;27.908;2022-08-03T11:40:41;2.75;;;2.30;;
9749;SDS011;4914;43.218;27.908;2022-08-03T11:46:13;8.52;;;2.30;;
9749;SDS011;4914;43.218;27.908;2022-08-03T11:48:46;3.05;;;2.42;;
9749;SDS011;4914;43.218;27.908;2022-08-03T11:51:20;5.43;;;2.38;;
9749;SDS011;4914;43.218;27.908;2022-08-03T11:53:54;7.65;;;2.40;;
9749;SDS011;4914;43.218;27.908;2022-08-03T11:56:22;3.00;;;2.20;;
9749;SDS011;4914;43.218;27.908;2022-08-03T11:58:50;6.35;;;2.63;;
9749;SDS011;4914;43.218;27.908;2022-08-03T12:01:18;4.25;;;2.40;;
9749;SDS011;4914;43.218;27.908;2022-08-03T12:03:45;2.80;;;2.50;;
9749;SDS011;4914;43.218;27.908;2022-08-03T12:06:13;11.27;;;2.45;;
9749;SDS011;4914;43.218;27.908;2022-08-03T12:08:42;3.88;;;2.53;;
9749;SDS011;4914;43.218;27.908;2022-08-03T12:11:13;3.00;;;2.35;;
9749;SDS011;4914;43.218;27.908;2022-08-03T12:13:41;4.88;;;2.40;;
9749;SDS011;4914;43.218;27.908;2022-08-03T12:16:09;3.75;;;2.50;;
9749;SDS011;4914;43.218;27.908;2022-08-03T12:18:42;5.15;;;4.65;;
9749;SDS011;4914;43.218;27.908;2022-08-03T12:21:10;3.22;;;2.92;;
9749;SDS011;4914;43.218;27.908;2022-08-03T12:23:37;5.10;;;2.90;;
9749;SDS011;4914;43.218;27.908;2022-08-03T12:26:05;3.72;;;2.60;;
9749;SDS011;4914;43.218;27.908;2022-08-03T12:28:34;5.47;;;2.75;;
9749;SDS011;4914;43.218;27.908;2022-08-03T12:31:02;4.10;;;2.55;;
9749;SDS011;4914;43.218;27.908;2022-08-03T12:33:31;3.40;;;2.60;;
9749;SDS011;4914;43.218;27.908;2022-08-03T12:36:22;4.10;;;2.88;;
9749;SDS011;4914;43.218;27.908;2022-08-03T12:38:53;8.73;;;5.38;;
9749;SDS011;4914;43.218;27.908;2022-08-03T12:41:26;9.70;;;7.45;;
9749;SDS011;4914;43.218;27.908;2022-08-03T12:43:56;9.45;;;5.88;;
9749;SDS011;4914;43.218;27.908;2022-08-03T12:46:27;6.30;;;3.33;;
9749;SDS011;4914;43.218;27.908;2022-08-03T12:48:57;3.63;;;2.75;;
9749;SDS011;4914;43.218;27.908;2022-08-03T12:51:31;5.60;;;2.63;;
9749;SDS011;4914;43.218;27.908;2022-08-03T12:53:59;3.35;;;2.50;;
9749;SDS011;4914;43.218;27.908;2022-08-03T12:56:27;2.70;;;2.50;;
9749;SDS011;4914;43.218;27.908;2022-08-03T12:58:54;3.78;;;2.47;;
9749;SDS011;4914;43.218;27.908;2022-08-03T13:01:22;9.25;;;3.08;;
9749;SDS011;4914;43.218;27.908;2022-08-03T13:03:51;5.07;;;2.50;;
9749;SDS011;4914;43.218;27.908;2022-08-03T13:06:19;3.78;;;2.47;;
9749;SDS011;4914;43.218;27.908;2022-08-03T13:08:47;3.70;;;2.58;;
9749;SDS011;4914;43.218;27.908;2022-08-03T13:11:22;2.45;;;2.25;;
9749;SDS011;4914;43.218;27.908;2022-08-03T13:13:50;3.97;;;2.30;;
9749;SDS011;4914;43.218;27.908;2022-08-03T13:16:19;4.03;;;2.50;;
9749;SDS011;4914;43.218;27.908;2022-08-03T13:18:47;5.22;;;2.28;;
9749;SDS011;4914;43.218;27.908;2022-08-03T13:21:16;3.90;;;2.40;;
9749;SDS011;4914;43.218;27.908;2022-08-03T13:23:45;3.28;;;2.38;;
9749;SDS011;4914;43.218;27.908;2022-08-03T13:26:12;2.30;;;2.10;;
9749;SDS011;4914;43.218;27.908;2022-08-03T13:28:39;2.83;;;2.20;;
9749;SDS011;4914;43.218;27.908;2022-08-03T13:31:05;5.32;;;2.25;;
9749;SDS011;4914;43.218;27.908;2022-08-03T13:33:34;3.50;;;2.42;;
9749;SDS011;4914;43.218;27.908;2022-08-03T13:36:00;4.75;;;2.40;;
9749;SDS011;4914;43.218;27.908;2022-08-03T13:38:27;3.28;;;2.30;;
9749;SDS011;4914;43.218;27.908;2022-08-03T13:40:54;5.65;;;2.42;;
9749;SDS011;4914;43.218;27.908;2022-08-03T13:43:21;5.72;;;2.30;;
9749;SDS011;4914;43.218;27.908;2022-08-03T13:45:48;3.65;;;2.30;;
9749;SDS011;4914;43.218;27.908;2022-08-03T13:48:15;3.67;;;2.42;;
9749;SDS011;4914;43.218;27.908;2022-08-03T13:50:43;5.07;;;2.50;;
9749;SDS011;4914;43.218;27.908;2022-08-03T13:53:10;4.43;;;2.40;;
9749;SDS011;4914;43.218;27.908;2022-08-03T13:55:36;5.47;;;2.20;;
9749;SDS011;4914;43.218;27.908;2022-08-03T13:58:03;5.05;;;2.40;;
9749;SDS011;4914;43.218;27.908;2022-08-03T14:00:32;4.18;;;2.53;;
9749;SDS011;4914;43.218;27.908;2022-08-03T14:02:59;3.13;;;2.20;;
9749;SDS011;4914;43.218;27.908;2022-08-03T14:05:27;6.43;;;2.50;;
9749;SDS011;4914;43.218;27.908;2022-08-03T14:07:56;4.35;;;2.22;;
9749;SDS011;4914;43.218;27.908;2022-08-03T14:10:25;6.72;;;2.25;;
9749;SDS011;4914;43.218;27.908;2022-08-03T14:12:51;4.70;;;2.20;;
9749;SDS011;4914;43.218;27.908;2022-08-03T14:15:20;5.22;;;2.53;;
9749;SDS011;4914;43.218;27.908;2022-08-03T14:17:47;5.90;;;2.63;;
9749;SDS011;4914;43.218;27.908;2022-08-03T14:20:13;3.60;;;2.63;;
9749;SDS011;4914;43.218;27.908;2022-08-03T14:22:40;4.78;;;2.42;;
9749;SDS011;4914;43.218;27.908;2022-08-03T14:25:08;2.85;;;2.33;;
9749;SDS011;4914;43.218;27.908;2022-08-03T14:27:35;3.55;;;2.20;;
9749;SDS011;4914;43.218;27.908;2022-08-03T14:30:02;3.47;;;2.10;;
9749;SDS011;4914;43.218;27.908;2022-08-03T14:32:29;4.80;;;2.53;;
9749;SDS011;4914;43.218;27.908;2022-08-03T14:34:56;5.57;;;2.58;;
9749;SDS011;4914;43.218;27.908;2022-08-03T14:37:23;3.88;;;2.40;;
9749;SDS011;4914;43.218;27.908;2022-08-03T14:39:50;2.55;;;2.10;;
9749;SDS011;4914;43.218;27.908;2022-08-03T14:42:18;4.15;;;2.25;;
9749;SDS011;4914;43.218;27.908;2022-08-03T14:44:45;6.97;;;2.28;;
9749;SDS011;4914;43.218;27.908;2022-08-03T14:47:12;2.92;;;2.40;;
9749;SDS011;4914;43.218;27.908;2022-08-03T14:49:39;2.95;;;2.35;;
9749;SDS011;4914;43.218;27.908;2022-08-03T14:52:06;2.58;;;2.38;;
9749;SDS011;4914;43.218;27.908;2022-08-03T14:54:33;2.45;;;2.17;;
9749;SDS011;4914;43.218;27.908;2022-08-03T14:57:00;3.15;;;2.28;;
9749;SDS011;4914;43.218;27.908;2022-08-03T14:59:28;11.60;;;2.40;;
9749;SDS011;4914;43.218;27.908;2022-08-03T15:01:55;2.72;;;2.30;;
9749;SDS011;4914;43.218;27.908;2022-08-03T15:04:22;2.97;;;2.40;;
9749;SDS011;4914;43.218;27.908;2022-08-03T15:06:49;3.92;;;2.05;;
9749;SDS011;4914;43.218;27.908;2022-08-03T15:09:15;2.78;;;2.30;;
9749;SDS011;4914;43.218;27.908;2022-08-03T15:11:42;2.88;;;2.50;;
9749;SDS011;4914;43.218;27.908;2022-08-03T15:14:09;4.88;;;2.30;;
9749;SDS011;4914;43.218;27.908;2022-08-03T15:16:37;5.28;;;2.28;;
9749;SDS011;4914;43.218;27.908;2022-08-03T15:19:04;3.70;;;2.22;;
9749;SDS011;4914;43.218;27.908;2022-08-03T15:21:31;3.17;;;2.28;;
9749;SDS011;4914;43.218;27.908;2022-08-03T15:23:58;2.65;;;2.17;;
9749;SDS011;4914;43.218;27.908;2022-08-03T15:26:25;4.85;;;2.30;;